sensor_id;sensor_type;location;lat;lon;timestamp;P1;durP1;ratioP1;P2;durP2;ratioP2
76377;SDS011;65200;49.500;8.654;2023-09-18T00:00:56;5.38;;;2.95;;
76377;SDS011;65200;49.500;8.654;2023-09-18T00:03:23;3.42;;;2.53;;
76377;SDS011;65200;49.500;8.654;2023-09-18T00:05:50;3.90;;;2.55;;
76377;SDS011;65200;49.500;8.654;2023-09-18T00:08:18;3.17;;;2.63;;
76377;SDS011;65200;49.500;8.654;2023-09-18T00:10:46;3.25;;;2.58;;
76377;SDS011;65200;49.500;8.654;2023-09-18T00:13:13;4.35;;;3.28;;
76377;SDS011;65200;49.500;8.654;2023-09-18T00:15:40;3.47;;;2.30;;
76377;SDS011;65200;49.500;8.654;2023-09-18T00:18:07;4.45;;;3.35;;
76377;SDS011;65200;49.500;8.654;2023-09-18T00:20:35;3.25;;;2.95;;
76377;SDS011;65200;49.500;8.654;2023-09-18T00:23:02;4.88;;;2.38;;
76377;SDS011;65200;49.500;8.654;2023-09-18T00:25:28;4.07;;;3.13;;
76377;SDS011;65200;49.500;8.654;2023-09-18T00:27:55;5.30;;;2.95;;
76377;SDS011;65200;49.500;8.654;2023-09-18T00:30:22;5.18;;;2.78;;
76377;SDS011;65200;49.500;8.654;2023-09-18T00:32:48;4.00;;;2.60;;
76377;SDS011;65200;49.500;8.654;2023-09-18T00:35:15;3.60;;;2.97;;
76377;SDS011;65200;49.500;8.654;2023-09-18T00:37:44;4.15;;;2.67;;
76377;SDS011;65200;49.500;8.654;2023-09-18T00:40:11;3.78;;;2.80;;
76377;SDS011;65200;49.500;8.654;2023-09-18T00:45:05;4.03;;;3.08;;
76377;SDS011;65200;49.500;8.654;2023-09-18T00:47:33;3.60;;;2.65;;
76377;SDS011;65200;49.500;8.654;2023-09-18T00:50:00;4.90;;;2.60;;
76377;SDS011;65200;49.500;8.654;2023-09-18T00:52:27;4.25;;;2.30;;
76377;SDS011;65200;49.500;8.654;2023-09-18T00:54:55;3.83;;;2.70;;
76377;SDS011;65200;49.500;8.654;2023-09-18T00:57:21;5.82;;;2.90;;
76377;SDS011;65200;49.500;8.654;2023-09-18T00:59:48;2.90;;;2.58;;
76377;SDS011;65200;49.500;8.654;2023-09-18T01:02:15;3.97;;;2.83;;
76377;SDS011;65200;49.500;8.654;2023-09-18T01:04:42;3.78;;;2.67;;
76377;SDS011;65200;49.500;8.654;2023-09-18T01:07:09;4.57;;;2.50;;
76377;SDS011;65200;49.500;8.654;2023-09-18T01:09:35;4.20;;;2.80;;
76377;SDS011;65200;49.500;8.654;2023-09-18T01:12:06;3.97;;;2.47;;
76377;SDS011;65200;49.500;8.654;2023-09-18T01:14:39;4.68;;;2.60;;
76377;SDS011;65200;49.500;8.654;2023-09-18T01:17:09;4.53;;;3.42;;
76377;SDS011;65200;49.500;8.654;2023-09-18T01:22:03;3.58;;;3.03;;
76377;SDS011;65200;49.500;8.654;2023-09-18T01:24:32;4.65;;;2.90;;
76377;SDS011;65200;49.500;8.654;2023-09-18T01:26:59;5.22;;;3.22;;
76377;SDS011;65200;49.500;8.654;2023-09-18T01:29:25;4.72;;;2.80;;
76377;SDS011;65200;49.500;8.654;2023-09-18T01:31:52;3.58;;;2.83;;
76377;SDS011;65200;49.500;8.654;2023-09-18T01:34:18;3.90;;;2.17;;
76377;SDS011;65200;49.500;8.654;2023-09-18T01:36:47;3.85;;;2.78;;
76377;SDS011;65200;49.500;8.654;2023-09-18T01:39:15;2.72;;;2.40;;
76377;SDS011;65200;49.500;8.654;2023-09-18T01:41:44;4.85;;;2.90;;
76377;SDS011;65200;49.500;8.654;2023-09-18T01:44:11;3.33;;;2.53;;
76377;SDS011;65200;49.500;8.654;2023-09-18T01:46:38;5.15;;;2.45;;
76377;SDS011;65200;49.500;8.654;2023-09-18T01:49:05;4.20;;;3.30;;
76377;SDS011;65200;49.500;8.654;2023-09-18T01:51:32;3.00;;;2.70;;
76377;SDS011;65200;49.500;8.654;2023-09-18T01:53:58;5.65;;;2.25;;
76377;SDS011;65200;49.500;8.654;2023-09-18T01:56:25;5.25;;;3.33;;
76377;SDS011;65200;49.500;8.654;2023-09-18T01:58:52;3.70;;;3.10;;
76377;SDS011;65200;49.500;8.654;2023-09-18T02:01:19;4.75;;;3.30;;
76377;SDS011;65200;49.500;8.654;2023-09-18T02:03:45;4.10;;;3.60;;
76377;SDS011;65200;49.500;8.654;2023-09-18T02:06:12;6.03;;;3.45;;
76377;SDS011;65200;49.500;8.654;2023-09-18T02:08:38;6.45;;;3.70;;
76377;SDS011;65200;49.500;8.654;2023-09-18T02:11:05;4.25;;;2.90;;
76377;SDS011;65200;49.500;8.654;2023-09-18T02:13:31;5.53;;;3.22;;
76377;SDS011;65200;49.500;8.654;2023-09-18T02:15:59;5.25;;;3.30;;
76377;SDS011;65200;49.500;8.654;2023-09-18T02:18:26;4.63;;;3.13;;
76377;SDS011;65200;49.500;8.654;2023-09-18T02:20:52;4.18;;;3.42;;
76377;SDS011;65200;49.500;8.654;2023-09-18T02:23:18;4.30;;;3.20;;
76377;SDS011;65200;49.500;8.654;2023-09-18T02:25:45;4.65;;;3.85;;
76377;SDS011;65200;49.500;8.654;2023-09-18T02:28:12;4.63;;;3.63;;
76377;SDS011;65200;49.500;8.654;2023-09-18T02:30:39;6.47;;;3.60;;
76377;SDS011;65200;49.500;8.654;2023-09-18T02:33:07;6.88;;;3.35;;
76377;SDS011;65200;49.500;8.654;2023-09-18T02:35:33;4.03;;;3.53;;
76377;SDS011;65200;49.500;8.654;2023-09-18T02:38:00;4.20;;;2.97;;
76377;SDS011;65200;49.500;8.654;2023-09-18T02:42:54;4.35;;;2.90;;
76377;SDS011;65200;49.500;8.654;2023-09-18T02:45:20;5.90;;;3.38;;
76377;SDS011;65200;49.500;8.654;2023-09-18T02:47:46;5.22;;;3.83;;
76377;SDS011;65200;49.500;8.654;2023-09-18T02:50:14;5.95;;;3.05;;
76377;SDS011;65200;49.500;8.654;2023-09-18T02:52:41;4.03;;;2.75;;
76377;SDS011;65200;49.500;8.654;2023-09-18T02:55:07;4.32;;;3.03;;
76377;SDS011;65200;49.500;8.654;2023-09-18T02:57:35;4.22;;;2.90;;
76377;SDS011;65200;49.500;8.654;2023-09-18T03:00:01;3.85;;;2.95;;
76377;SDS011;65200;49.500;8.654;2023-09-18T03:02:28;3.33;;;2.80;;
76377;SDS011;65200;49.500;8.654;2023-09-18T03:04:55;4.20;;;3.42;;
76377;SDS011;65200;49.500;8.654;2023-09-18T03:07:22;3.90;;;3.03;;
76377;SDS011;65200;49.500;8.654;2023-09-18T03:09:49;4.97;;;2.63;;
76377;SDS011;65200;49.500;8.654;2023-09-18T03:12:15;5.18;;;2.88;;
76377;SDS011;65200;49.500;8.654;2023-09-18T03:14:42;6.18;;;2.92;;
76377;SDS011;65200;49.500;8.654;2023-09-18T03:17:08;5.47;;;2.70;;
76377;SDS011;65200;49.500;8.654;2023-09-18T03:19:35;4.97;;;3.22;;
76377;SDS011;65200;49.500;8.654;2023-09-18T03:22:01;4.13;;;2.38;;
76377;SDS011;65200;49.500;8.654;2023-09-18T03:24:29;5.93;;;2.78;;
76377;SDS011;65200;49.500;8.654;2023-09-18T03:26:56;4.13;;;2.42;;
76377;SDS011;65200;49.500;8.654;2023-09-18T03:29:22;4.13;;;2.50;;
76377;SDS011;65200;49.500;8.654;2023-09-18T03:31:48;5.38;;;2.90;;
76377;SDS011;65200;49.500;8.654;2023-09-18T03:34:15;3.00;;;2.15;;
76377;SDS011;65200;49.500;8.654;2023-09-18T03:36:41;5.40;;;3.50;;
76377;SDS011;65200;49.500;8.654;2023-09-18T03:39:08;4.63;;;2.90;;
76377;SDS011;65200;49.500;8.654;2023-09-18T03:41:36;3.45;;;2.90;;
76377;SDS011;65200;49.500;8.654;2023-09-18T03:44:02;8.80;;;3.63;;
76377;SDS011;65200;49.500;8.654;2023-09-18T03:46:29;7.30;;;3.38;;
76377;SDS011;65200;49.500;8.654;2023-09-18T03:48:56;4.93;;;2.78;;
76377;SDS011;65200;49.500;8.654;2023-09-18T03:51:23;3.72;;;2.83;;
76377;SDS011;65200;49.500;8.654;2023-09-18T03:53:49;5.53;;;3.40;;
76377;SDS011;65200;49.500;8.654;2023-09-18T03:56:16;7.90;;;3.63;;
76377;SDS011;65200;49.500;8.654;2023-09-18T03:58:44;10.07;;;3.40;;
76377;SDS011;65200;49.500;8.654;2023-09-18T04:01:14;7.07;;;3.50;;
76377;SDS011;65200;49.500;8.654;2023-09-18T04:03:40;7.18;;;3.88;;
76377;SDS011;65200;49.500;8.654;2023-09-18T04:06:07;7.30;;;3.40;;
76377;SDS011;65200;49.500;8.654;2023-09-18T04:08:33;6.90;;;3.25;;
76377;SDS011;65200;49.500;8.654;2023-09-18T04:11:00;5.88;;;3.33;;
76377;SDS011;65200;49.500;8.654;2023-09-18T04:15:55;6.75;;;3.08;;
76377;SDS011;65200;49.500;8.654;2023-09-18T04:18:21;8.27;;;3.83;;
76377;SDS011;65200;49.500;8.654;2023-09-18T04:20:48;7.20;;;3.72;;
76377;SDS011;65200;49.500;8.654;2023-09-18T04:23:17;10.38;;;3.50;;
76377;SDS011;65200;49.500;8.654;2023-09-18T04:25:44;6.72;;;3.80;;
76377;SDS011;65200;49.500;8.654;2023-09-18T04:28:11;6.38;;;3.60;;
76377;SDS011;65200;49.500;8.654;2023-09-18T04:30:38;7.82;;;3.55;;
76377;SDS011;65200;49.500;8.654;2023-09-18T04:33:06;7.63;;;3.67;;
76377;SDS011;65200;49.500;8.654;2023-09-18T04:35:32;6.60;;;3.42;;
76377;SDS011;65200;49.500;8.654;2023-09-18T04:37:59;5.13;;;3.05;;
76377;SDS011;65200;49.500;8.654;2023-09-18T04:40:26;7.63;;;3.47;;
76377;SDS011;65200;49.500;8.654;2023-09-18T04:42:57;3.10;;;2.75;;
76377;SDS011;65200;49.500;8.654;2023-09-18T04:45:23;5.78;;;3.00;;
76377;SDS011;65200;49.500;8.654;2023-09-18T04:47:50;3.72;;;3.03;;
76377;SDS011;65200;49.500;8.654;2023-09-18T04:50:18;5.50;;;3.05;;
76377;SDS011;65200;49.500;8.654;2023-09-18T04:52:44;4.57;;;2.88;;
76377;SDS011;65200;49.500;8.654;2023-09-18T04:55:12;5.78;;;3.65;;
76377;SDS011;65200;49.500;8.654;2023-09-18T04:57:39;3.63;;;3.28;;
76377;SDS011;65200;49.500;8.654;2023-09-18T05:00:06;4.75;;;3.08;;
76377;SDS011;65200;49.500;8.654;2023-09-18T05:02:34;4.50;;;2.53;;
76377;SDS011;65200;49.500;8.654;2023-09-18T05:05:01;6.95;;;2.53;;
76377;SDS011;65200;49.500;8.654;2023-09-18T05:09:58;5.15;;;2.47;;
76377;SDS011;65200;49.500;8.654;2023-09-18T05:12:28;5.95;;;3.67;;
76377;SDS011;65200;49.500;8.654;2023-09-18T05:14:54;7.13;;;2.55;;
76377;SDS011;65200;49.500;8.654;2023-09-18T05:17:27;6.20;;;2.15;;
76377;SDS011;65200;49.500;8.654;2023-09-18T05:20:07;4.30;;;3.05;;
76377;SDS011;65200;49.500;8.654;2023-09-18T05:22:36;6.85;;;3.50;;
76377;SDS011;65200;49.500;8.654;2023-09-18T05:25:03;2.90;;;2.20;;
76377;SDS011;65200;49.500;8.654;2023-09-18T05:27:30;3.15;;;2.85;;
76377;SDS011;65200;49.500;8.654;2023-09-18T05:29:57;9.00;;;3.08;;
76377;SDS011;65200;49.500;8.654;2023-09-18T05:32:23;8.85;;;3.17;;
76377;SDS011;65200;49.500;8.654;2023-09-18T05:34:50;5.70;;;2.90;;
76377;SDS011;65200;49.500;8.654;2023-09-18T05:37:16;6.43;;;2.78;;
76377;SDS011;65200;49.500;8.654;2023-09-18T05:39:44;5.18;;;2.63;;
76377;SDS011;65200;49.500;8.654;2023-09-18T05:42:11;7.38;;;2.83;;
76377;SDS011;65200;49.500;8.654;2023-09-18T05:44:37;7.07;;;2.95;;
76377;SDS011;65200;49.500;8.654;2023-09-18T05:47:04;6.95;;;2.92;;
76377;SDS011;65200;49.500;8.654;2023-09-18T05:49:30;5.63;;;2.85;;
76377;SDS011;65200;49.500;8.654;2023-09-18T05:51:57;4.82;;;3.25;;
76377;SDS011;65200;49.500;8.654;2023-09-18T05:54:23;6.57;;;3.25;;
76377;SDS011;65200;49.500;8.654;2023-09-18T05:56:51;10.80;;;3.00;;
76377;SDS011;65200;49.500;8.654;2023-09-18T05:59:18;7.18;;;3.53;;
76377;SDS011;65200;49.500;8.654;2023-09-18T06:01:45;6.05;;;3.33;;
76377;SDS011;65200;49.500;8.654;2023-09-18T06:04:13;5.90;;;3.95;;
76377;SDS011;65200;49.500;8.654;2023-09-18T06:06:41;8.20;;;3.08;;
76377;SDS011;65200;49.500;8.654;2023-09-18T06:09:08;5.88;;;3.55;;
76377;SDS011;65200;49.500;8.654;2023-09-18T06:11:35;5.40;;;3.20;;
76377;SDS011;65200;49.500;8.654;2023-09-18T06:14:03;11.05;;;3.28;;
76377;SDS011;65200;49.500;8.654;2023-09-18T06:16:30;4.65;;;3.38;;
76377;SDS011;65200;49.500;8.654;2023-09-18T06:18:56;5.95;;;2.92;;
76377;SDS011;65200;49.500;8.654;2023-09-18T06:21:25;7.80;;;3.60;;
76377;SDS011;65200;49.500;8.654;2023-09-18T06:23:51;6.50;;;3.15;;
76377;SDS011;65200;49.500;8.654;2023-09-18T06:26:18;7.25;;;3.55;;
76377;SDS011;65200;49.500;8.654;2023-09-18T06:28:44;6.82;;;3.83;;
76377;SDS011;65200;49.500;8.654;2023-09-18T06:31:12;7.25;;;3.55;;
76377;SDS011;65200;49.500;8.654;2023-09-18T06:33:39;9.85;;;3.35;;
76377;SDS011;65200;49.500;8.654;2023-09-18T06:36:05;5.90;;;3.63;;
76377;SDS011;65200;49.500;8.654;2023-09-18T06:38:32;6.65;;;3.45;;
76377;SDS011;65200;49.500;8.654;2023-09-18T06:40:59;7.55;;;3.83;;
76377;SDS011;65200;49.500;8.654;2023-09-18T06:43:25;8.43;;;4.18;;
76377;SDS011;65200;49.500;8.654;2023-09-18T06:45:51;7.68;;;4.05;;
76377;SDS011;65200;49.500;8.654;2023-09-18T06:48:19;6.90;;;3.55;;
76377;SDS011;65200;49.500;8.654;2023-09-18T06:50:46;4.43;;;3.10;;
76377;SDS011;65200;49.500;8.654;2023-09-18T06:53:13;6.72;;;3.33;;
76377;SDS011;65200;49.500;8.654;2023-09-18T06:55:39;7.03;;;3.83;;
76377;SDS011;65200;49.500;8.654;2023-09-18T06:58:06;7.30;;;4.03;;
76377;SDS011;65200;49.500;8.654;2023-09-18T07:00:32;7.55;;;3.10;;
76377;SDS011;65200;49.500;8.654;2023-09-18T07:02:59;8.13;;;3.78;;
76377;SDS011;65200;49.500;8.654;2023-09-18T07:05:27;5.32;;;3.30;;
76377;SDS011;65200;49.500;8.654;2023-09-18T07:07:53;8.57;;;3.53;;
76377;SDS011;65200;49.500;8.654;2023-09-18T07:10:20;5.43;;;2.97;;
76377;SDS011;65200;49.500;8.654;2023-09-18T07:12:47;3.47;;;2.90;;
76377;SDS011;65200;49.500;8.654;2023-09-18T07:15:13;10.05;;;3.53;;
76377;SDS011;65200;49.500;8.654;2023-09-18T07:17:40;5.60;;;2.88;;
76377;SDS011;65200;49.500;8.654;2023-09-18T07:20:06;6.20;;;3.22;;
76377;SDS011;65200;49.500;8.654;2023-09-18T07:22:40;6.03;;;3.30;;
76377;SDS011;65200;49.500;8.654;2023-09-18T07:25:11;6.68;;;3.13;;
76377;SDS011;65200;49.500;8.654;2023-09-18T07:27:37;5.20;;;3.17;;
76377;SDS011;65200;49.500;8.654;2023-09-18T07:30:09;7.65;;;2.63;;
76377;SDS011;65200;49.500;8.654;2023-09-18T07:32:36;7.38;;;3.90;;
76377;SDS011;65200;49.500;8.654;2023-09-18T07:35:03;7.80;;;3.20;;
76377;SDS011;65200;49.500;8.654;2023-09-18T07:37:30;6.47;;;2.58;;
76377;SDS011;65200;49.500;8.654;2023-09-18T07:39:58;4.85;;;3.30;;
76377;SDS011;65200;49.500;8.654;2023-09-18T07:42:24;6.30;;;2.83;;
76377;SDS011;65200;49.500;8.654;2023-09-18T07:44:51;4.88;;;2.85;;
76377;SDS011;65200;49.500;8.654;2023-09-18T07:47:17;5.95;;;2.75;;
76377;SDS011;65200;49.500;8.654;2023-09-18T07:49:44;8.70;;;3.22;;
76377;SDS011;65200;49.500;8.654;2023-09-18T07:52:11;3.58;;;3.17;;
76377;SDS011;65200;49.500;8.654;2023-09-18T07:54:37;9.77;;;2.50;;
76377;SDS011;65200;49.500;8.654;2023-09-18T07:57:05;6.45;;;2.47;;
76377;SDS011;65200;49.500;8.654;2023-09-18T07:59:34;3.67;;;2.55;;
76377;SDS011;65200;49.500;8.654;2023-09-18T08:02:01;4.88;;;2.65;;
76377;SDS011;65200;49.500;8.654;2023-09-18T08:04:28;4.90;;;2.67;;
76377;SDS011;65200;49.500;8.654;2023-09-18T08:06:57;3.65;;;2.53;;
76377;SDS011;65200;49.500;8.654;2023-09-18T08:09:23;4.22;;;2.15;;
76377;SDS011;65200;49.500;8.654;2023-09-18T08:11:50;3.70;;;2.20;;
76377;SDS011;65200;49.500;8.654;2023-09-18T08:14:21;4.03;;;2.17;;
76377;SDS011;65200;49.500;8.654;2023-09-18T08:16:48;5.82;;;2.17;;
76377;SDS011;65200;49.500;8.654;2023-09-18T08:19:22;3.22;;;2.00;;
76377;SDS011;65200;49.500;8.654;2023-09-18T08:21:52;4.25;;;2.75;;
76377;SDS011;65200;49.500;8.654;2023-09-18T08:24:19;3.78;;;2.33;;
76377;SDS011;65200;49.500;8.654;2023-09-18T08:26:46;3.10;;;2.42;;
76377;SDS011;65200;49.500;8.654;2023-09-18T08:29:13;5.22;;;1.63;;
76377;SDS011;65200;49.500;8.654;2023-09-18T08:31:41;2.47;;;2.20;;
76377;SDS011;65200;49.500;8.654;2023-09-18T08:34:08;3.20;;;2.28;;
76377;SDS011;65200;49.500;8.654;2023-09-18T08:36:34;3.03;;;2.17;;
76377;SDS011;65200;49.500;8.654;2023-09-18T08:39:01;2.40;;;1.55;;
76377;SDS011;65200;49.500;8.654;2023-09-18T08:41:31;2.97;;;2.28;;
76377;SDS011;65200;49.500;8.654;2023-09-18T08:43:59;6.28;;;2.50;;
76377;SDS011;65200;49.500;8.654;2023-09-18T08:46:28;3.17;;;1.95;;
76377;SDS011;65200;49.500;8.654;2023-09-18T08:48:56;4.57;;;2.50;;
76377;SDS011;65200;49.500;8.654;2023-09-18T08:51:23;4.90;;;2.10;;
76377;SDS011;65200;49.500;8.654;2023-09-18T08:53:50;3.03;;;2.42;;
76377;SDS011;65200;49.500;8.654;2023-09-18T08:56:17;3.60;;;2.45;;
76377;SDS011;65200;49.500;8.654;2023-09-18T08:58:44;6.22;;;2.20;;
76377;SDS011;65200;49.500;8.654;2023-09-18T09:01:12;5.53;;;2.15;;
76377;SDS011;65200;49.500;8.654;2023-09-18T09:03:39;2.60;;;1.80;;
76377;SDS011;65200;49.500;8.654;2023-09-18T09:06:09;2.10;;;1.90;;
76377;SDS011;65200;49.500;8.654;2023-09-18T09:08:36;2.60;;;1.98;;
76377;SDS011;65200;49.500;8.654;2023-09-18T09:11:02;2.75;;;2.13;;
76377;SDS011;65200;49.500;8.654;2023-09-18T09:13:29;5.45;;;1.70;;
76377;SDS011;65200;49.500;8.654;2023-09-18T09:15:57;1.88;;;1.70;;
76377;SDS011;65200;49.500;8.654;2023-09-18T09:18:24;4.97;;;1.98;;
76377;SDS011;65200;49.500;8.654;2023-09-18T09:20:52;2.70;;;1.90;;
76377;SDS011;65200;49.500;8.654;2023-09-18T09:23:24;2.92;;;1.48;;
76377;SDS011;65200;49.500;8.654;2023-09-18T09:25:52;2.70;;;2.00;;
76377;SDS011;65200;49.500;8.654;2023-09-18T09:28:28;2.95;;;2.17;;
76377;SDS011;65200;49.500;8.654;2023-09-18T09:30:59;2.80;;;2.03;;
76377;SDS011;65200;49.500;8.654;2023-09-18T09:33:27;2.50;;;1.98;;
76377;SDS011;65200;49.500;8.654;2023-09-18T09:38:22;4.55;;;1.95;;
76377;SDS011;65200;49.500;8.654;2023-09-18T09:40:58;3.67;;;2.22;;
76377;SDS011;65200;49.500;8.654;2023-09-18T09:43:25;4.10;;;2.03;;
76377;SDS011;65200;49.500;8.654;2023-09-18T09:48:23;2.67;;;1.98;;
76377;SDS011;65200;49.500;8.654;2023-09-18T09:50:51;1.80;;;1.55;;
76377;SDS011;65200;49.500;8.654;2023-09-18T09:53:20;3.50;;;1.80;;
76377;SDS011;65200;49.500;8.654;2023-09-18T09:56:13;3.20;;;2.42;;
76377;SDS011;65200;49.500;8.654;2023-09-18T09:58:40;4.45;;;1.90;;
76377;SDS011;65200;49.500;8.654;2023-09-18T10:01:09;4.43;;;2.33;;
76377;SDS011;65200;49.500;8.654;2023-09-18T10:03:42;5.25;;;2.63;;
76377;SDS011;65200;49.500;8.654;2023-09-18T10:06:09;2.90;;;1.98;;
76377;SDS011;65200;49.500;8.654;2023-09-18T10:08:38;3.58;;;2.05;;
76377;SDS011;65200;49.500;8.654;2023-09-18T10:13:39;4.63;;;2.03;;
76377;SDS011;65200;49.500;8.654;2023-09-18T10:16:11;4.15;;;1.98;;
76377;SDS011;65200;49.500;8.654;2023-09-18T10:18:42;5.57;;;2.25;;
76377;SDS011;65200;49.500;8.654;2023-09-18T10:21:19;2.45;;;2.00;;
76377;SDS011;65200;49.500;8.654;2023-09-18T10:23:58;2.88;;;2.22;;
76377;SDS011;65200;49.500;8.654;2023-09-18T10:26:33;3.47;;;2.17;;
76377;SDS011;65200;49.500;8.654;2023-09-18T10:29:06;2.78;;;2.10;;
76377;SDS011;65200;49.500;8.654;2023-09-18T10:31:34;3.45;;;1.67;;
76377;SDS011;65200;49.500;8.654;2023-09-18T10:34:02;2.42;;;1.98;;
76377;SDS011;65200;49.500;8.654;2023-09-18T10:36:31;3.08;;;2.00;;
76377;SDS011;65200;49.500;8.654;2023-09-18T10:38:59;2.67;;;2.00;;
76377;SDS011;65200;49.500;8.654;2023-09-18T10:41:26;5.82;;;1.98;;
76377;SDS011;65200;49.500;8.654;2023-09-18T10:43:54;3.63;;;1.90;;
76377;SDS011;65200;49.500;8.654;2023-09-18T10:46:22;3.55;;;2.00;;
76377;SDS011;65200;49.500;8.654;2023-09-18T10:48:50;2.75;;;2.00;;
76377;SDS011;65200;49.500;8.654;2023-09-18T10:51:19;3.08;;;2.03;;
76377;SDS011;65200;49.500;8.654;2023-09-18T10:53:47;3.65;;;2.17;;
76377;SDS011;65200;49.500;8.654;2023-09-18T10:56:14;4.13;;;2.42;;
76377;SDS011;65200;49.500;8.654;2023-09-18T10:58:41;4.03;;;2.00;;
76377;SDS011;65200;49.500;8.654;2023-09-18T11:01:12;3.13;;;1.90;;
76377;SDS011;65200;49.500;8.654;2023-09-18T11:03:39;2.50;;;1.88;;
76377;SDS011;65200;49.500;8.654;2023-09-18T11:08:34;3.78;;;2.22;;
76377;SDS011;65200;49.500;8.654;2023-09-18T11:11:09;2.80;;;1.92;;
76377;SDS011;65200;49.500;8.654;2023-09-18T11:13:39;3.65;;;1.95;;
76377;SDS011;65200;49.500;8.654;2023-09-18T11:16:14;4.43;;;2.63;;
76377;SDS011;65200;49.500;8.654;2023-09-18T11:18:42;3.70;;;2.00;;
76377;SDS011;65200;49.500;8.654;2023-09-18T11:21:09;4.25;;;1.90;;
76377;SDS011;65200;49.500;8.654;2023-09-18T11:23:37;4.80;;;2.00;;
76377;SDS011;65200;49.500;8.654;2023-09-18T11:26:07;4.18;;;2.28;;
76377;SDS011;65200;49.500;8.654;2023-09-18T11:28:35;4.60;;;2.28;;
76377;SDS011;65200;49.500;8.654;2023-09-18T11:33:31;2.70;;;2.13;;
76377;SDS011;65200;49.500;8.654;2023-09-18T11:36:04;3.20;;;1.73;;
76377;SDS011;65200;49.500;8.654;2023-09-18T11:38:32;4.22;;;2.17;;
76377;SDS011;65200;49.500;8.654;2023-09-18T11:41:01;3.05;;;2.03;;
76377;SDS011;65200;49.500;8.654;2023-09-18T11:43:45;2.15;;;1.90;;
76377;SDS011;65200;49.500;8.654;2023-09-18T11:46:12;3.10;;;2.45;;
76377;SDS011;65200;49.500;8.654;2023-09-18T11:48:46;2.42;;;2.10;;
76377;SDS011;65200;49.500;8.654;2023-09-18T11:51:15;3.08;;;2.30;;
76377;SDS011;65200;49.500;8.654;2023-09-18T11:53:47;6.47;;;2.30;;
76377;SDS011;65200;49.500;8.654;2023-09-18T11:56:18;6.25;;;2.35;;
76377;SDS011;65200;49.500;8.654;2023-09-18T11:58:44;3.60;;;1.95;;
76377;SDS011;65200;49.500;8.654;2023-09-18T12:01:12;3.53;;;1.75;;
76377;SDS011;65200;49.500;8.654;2023-09-18T12:03:40;3.20;;;2.17;;
76377;SDS011;65200;49.500;8.654;2023-09-18T12:06:08;4.53;;;1.95;;
76377;SDS011;65200;49.500;8.654;2023-09-18T12:08:38;3.78;;;1.95;;
76377;SDS011;65200;49.500;8.654;2023-09-18T12:11:05;2.58;;;1.40;;
76377;SDS011;65200;49.500;8.654;2023-09-18T12:13:32;7.80;;;1.85;;
76377;SDS011;65200;49.500;8.654;2023-09-18T12:15:59;2.13;;;1.40;;
76377;SDS011;65200;49.500;8.654;2023-09-18T12:18:26;2.00;;;1.77;;
76377;SDS011;65200;49.500;8.654;2023-09-18T12:20:54;2.20;;;1.70;;
76377;SDS011;65200;49.500;8.654;2023-09-18T12:23:25;2.60;;;2.00;;
76377;SDS011;65200;49.500;8.654;2023-09-18T12:25:56;2.63;;;1.80;;
76377;SDS011;65200;49.500;8.654;2023-09-18T12:28:25;4.30;;;2.22;;
76377;SDS011;65200;49.500;8.654;2023-09-18T12:30:53;3.63;;;1.80;;
76377;SDS011;65200;49.500;8.654;2023-09-18T12:33:21;2.40;;;1.73;;
76377;SDS011;65200;49.500;8.654;2023-09-18T12:35:48;4.10;;;1.60;;
76377;SDS011;65200;49.500;8.654;2023-09-18T12:38:16;2.47;;;2.13;;
76377;SDS011;65200;49.500;8.654;2023-09-18T12:40:45;2.58;;;2.03;;
76377;SDS011;65200;49.500;8.654;2023-09-18T12:43:12;4.00;;;2.03;;
76377;SDS011;65200;49.500;8.654;2023-09-18T12:45:40;2.35;;;2.15;;
76377;SDS011;65200;49.500;8.654;2023-09-18T12:48:08;3.20;;;1.65;;
76377;SDS011;65200;49.500;8.654;2023-09-18T12:50:36;5.75;;;2.20;;
76377;SDS011;65200;49.500;8.654;2023-09-18T12:53:06;3.05;;;1.80;;
76377;SDS011;65200;49.500;8.654;2023-09-18T12:55:36;5.60;;;2.13;;
76377;SDS011;65200;49.500;8.654;2023-09-18T12:58:05;2.22;;;1.70;;
76377;SDS011;65200;49.500;8.654;2023-09-18T13:00:34;3.17;;;2.08;;
76377;SDS011;65200;49.500;8.654;2023-09-18T13:05:29;2.92;;;2.03;;
76377;SDS011;65200;49.500;8.654;2023-09-18T13:08:00;3.45;;;1.90;;
76377;SDS011;65200;49.500;8.654;2023-09-18T13:10:28;2.10;;;1.90;;
76377;SDS011;65200;49.500;8.654;2023-09-18T13:12:55;1.92;;;1.50;;
76377;SDS011;65200;49.500;8.654;2023-09-18T13:15:27;1.73;;;1.40;;
76377;SDS011;65200;49.500;8.654;2023-09-18T13:17:55;2.35;;;1.90;;
76377;SDS011;65200;49.500;8.654;2023-09-18T13:20:24;4.63;;;1.83;;
76377;SDS011;65200;49.500;8.654;2023-09-18T13:22:54;2.85;;;2.05;;
76377;SDS011;65200;49.500;8.654;2023-09-18T13:25:22;2.40;;;1.63;;
76377;SDS011;65200;49.500;8.654;2023-09-18T13:27:49;2.42;;;1.98;;
76377;SDS011;65200;49.500;8.654;2023-09-18T13:30:17;3.88;;;2.13;;
76377;SDS011;65200;49.500;8.654;2023-09-18T13:32:48;2.78;;;1.75;;
76377;SDS011;65200;49.500;8.654;2023-09-18T13:35:15;3.53;;;1.83;;
76377;SDS011;65200;49.500;8.654;2023-09-18T13:37:42;3.58;;;2.22;;
76377;SDS011;65200;49.500;8.654;2023-09-18T13:42:36;2.58;;;1.52;;
76377;SDS011;65200;49.500;8.654;2023-09-18T13:47:31;2.72;;;1.80;;
76377;SDS011;65200;49.500;8.654;2023-09-18T13:50:00;2.35;;;1.63;;
76377;SDS011;65200;49.500;8.654;2023-09-18T13:52:27;2.53;;;1.80;;
76377;SDS011;65200;49.500;8.654;2023-09-18T13:54:55;4.55;;;2.03;;
76377;SDS011;65200;49.500;8.654;2023-09-18T13:57:22;1.70;;;1.52;;
76377;SDS011;65200;49.500;8.654;2023-09-18T13:59:49;2.90;;;1.90;;
76377;SDS011;65200;49.500;8.654;2023-09-18T14:02:17;2.85;;;1.77;;
76377;SDS011;65200;49.500;8.654;2023-09-18T14:04:44;4.55;;;1.48;;
76377;SDS011;65200;49.500;8.654;2023-09-18T14:07:12;2.28;;;1.63;;
76377;SDS011;65200;49.500;8.654;2023-09-18T14:09:38;2.92;;;1.80;;
76377;SDS011;65200;49.500;8.654;2023-09-18T14:12:05;9.00;;;2.35;;
76377;SDS011;65200;49.500;8.654;2023-09-18T14:14:33;2.70;;;2.10;;
76377;SDS011;65200;49.500;8.654;2023-09-18T14:17:00;2.20;;;1.80;;
76377;SDS011;65200;49.500;8.654;2023-09-18T14:19:26;2.78;;;1.50;;
76377;SDS011;65200;49.500;8.654;2023-09-18T14:21:53;2.13;;;1.65;;
76377;SDS011;65200;49.500;8.654;2023-09-18T14:24:21;2.95;;;1.80;;
76377;SDS011;65200;49.500;8.654;2023-09-18T14:26:50;5.10;;;2.33;;
76377;SDS011;65200;49.500;8.654;2023-09-18T14:29:17;3.28;;;1.77;;
76377;SDS011;65200;49.500;8.654;2023-09-18T14:31:44;2.35;;;1.90;;
76377;SDS011;65200;49.500;8.654;2023-09-18T14:34:11;2.05;;;1.67;;
76377;SDS011;65200;49.500;8.654;2023-09-18T14:36:37;4.40;;;1.70;;
76377;SDS011;65200;49.500;8.654;2023-09-18T14:39:04;2.63;;;1.60;;
76377;SDS011;65200;49.500;8.654;2023-09-18T14:41:34;2.72;;;2.17;;
76377;SDS011;65200;49.500;8.654;2023-09-18T14:44:01;2.40;;;1.52;;
76377;SDS011;65200;49.500;8.654;2023-09-18T14:46:28;3.75;;;2.03;;
76377;SDS011;65200;49.500;8.654;2023-09-18T14:48:55;3.08;;;2.17;;
76377;SDS011;65200;49.500;8.654;2023-09-18T14:51:21;3.80;;;1.67;;
76377;SDS011;65200;49.500;8.654;2023-09-18T14:53:48;4.38;;;1.75;;
76377;SDS011;65200;49.500;8.654;2023-09-18T14:56:15;2.28;;;1.27;;
76377;SDS011;65200;49.500;8.654;2023-09-18T14:58:43;3.95;;;1.73;;
76377;SDS011;65200;49.500;8.654;2023-09-18T15:01:10;3.30;;;2.03;;
76377;SDS011;65200;49.500;8.654;2023-09-18T15:03:37;3.13;;;1.67;;
76377;SDS011;65200;49.500;8.654;2023-09-18T15:06:04;2.30;;;1.52;;
76377;SDS011;65200;49.500;8.654;2023-09-18T15:08:32;2.90;;;1.67;;
76377;SDS011;65200;49.500;8.654;2023-09-18T15:10:59;2.70;;;1.73;;
76377;SDS011;65200;49.500;8.654;2023-09-18T15:13:25;4.07;;;1.98;;
76377;SDS011;65200;49.500;8.654;2023-09-18T15:15:53;2.75;;;1.90;;
76377;SDS011;65200;49.500;8.654;2023-09-18T15:18:20;4.13;;;1.70;;
76377;SDS011;65200;49.500;8.654;2023-09-18T15:20:49;4.75;;;1.50;;
76377;SDS011;65200;49.500;8.654;2023-09-18T15:23:19;2.03;;;1.50;;